sensor_id;sensor_type;location;lat;lon;timestamp;pressure;altitude;pressure_sealevel;temperature;humidity
69982;BME280;57319;56.274;43.980;2024-01-06T00:00:37;99514.88;;;-22.53;79.41
69982;BME280;57319;56.274;43.980;2024-01-06T00:03:02;99515.06;;;-22.66;79.51
69982;BME280;57319;56.274;43.980;2024-01-06T00:05:28;99511.59;;;-22.61;79.25
69982;BME280;57319;56.274;43.980;2024-01-06T00:07:54;99519.41;;;-22.56;78.80
69982;BME280;57319;56.274;43.980;2024-01-06T00:10:19;99511.75;;;-22.59;78.65
69982;BME280;57319;56.274;43.980;2024-01-06T00:12:45;99514.53;;;-22.63;78.60
69982;BME280;57319;56.274;43.980;2024-01-06T00:15:11;99513.84;;;-22.69;79.06
69982;BME280;57319;56.274;43.980;2024-01-06T00:17:36;99507.75;;;-22.66;78.65
69982;BME280;57319;56.274;43.980;2024-01-06T00:20:02;99511.44;;;-22.91;78.27
69982;BME280;57319;56.274;43.980;2024-01-06T00:22:29;99512.66;;;-22.95;78.94
69982;BME280;57319;56.274;43.980;2024-01-06T00:24:55;99509.72;;;-23.14;78.06
69982;BME280;57319;56.274;43.980;2024-01-06T00:27:20;99515.97;;;-23.09;78.05
69982;BME280;57319;56.274;43.980;2024-01-06T00:29:46;99512.28;;;-23.05;77.70
69982;BME280;57319;56.274;43.980;2024-01-06T00:32:12;99514.72;;;-23.05;77.57
69982;BME280;57319;56.274;43.980;2024-01-06T00:34:38;99516.81;;;-23.01;77.39
69982;BME280;57319;56.274;43.980;2024-01-06T00:37:04;99514.94;;;-23.03;77.71
69982;BME280;57319;56.274;43.980;2024-01-06T00:39:29;99520.31;;;-23.20;77.09
69982;BME280;57319;56.274;43.980;2024-01-06T00:41:55;99516.31;;;-23.05;78.03
69982;BME280;57319;56.274;43.980;2024-01-06T00:44:21;99528.19;;;-23.16;77.17
69982;BME280;57319;56.274;43.980;2024-01-06T00:46:46;99520.31;;;-22.92;78.05
69982;BME280;57319;56.274;43.980;2024-01-06T00:49:12;99525.19;;;-22.77;77.92
69982;BME280;57319;56.274;43.980;2024-01-06T00:51:37;99522.03;;;-22.76;77.52
69982;BME280;57319;56.274;43.980;2024-01-06T00:54:03;99520.16;;;-22.79;77.88
69982;BME280;57319;56.274;43.980;2024-01-06T00:56:29;99526.41;;;-22.81;78.19
69982;BME280;57319;56.274;43.980;2024-01-06T00:58:54;99520.50;;;-22.83;78.45
69982;BME280;57319;56.274;43.980;2024-01-06T01:01:20;99521.88;;;-22.85;78.20
69982;BME280;57319;56.274;43.980;2024-01-06T01:03:47;99530.41;;;-22.88;77.88
69982;BME280;57319;56.274;43.980;2024-01-06T01:06:12;99522.56;;;-22.86;78.44
69982;BME280;57319;56.274;43.980;2024-01-06T01:08:38;99517.00;;;-22.85;78.00
69982;BME280;57319;56.274;43.980;2024-01-06T01:11:04;99520.66;;;-22.88;77.21
69982;BME280;57319;56.274;43.980;2024-01-06T01:13:29;99511.97;;;-22.94;77.96
69982;BME280;57319;56.274;43.980;2024-01-06T01:15:55;99517.69;;;-22.93;77.49
69982;BME280;57319;56.274;43.980;2024-01-06T01:18:21;99522.91;;;-22.97;77.90
69982;BME280;57319;56.274;43.980;2024-01-06T01:20:47;99526.41;;;-23.10;77.95
69982;BME280;57319;56.274;43.980;2024-01-06T01:23:12;99524.13;;;-23.08;77.60
69982;BME280;57319;56.274;43.980;2024-01-06T01:25:38;99530.94;;;-23.05;78.12
69982;BME280;57319;56.274;43.980;2024-01-06T01:28:04;99527.63;;;-23.35;77.20
69982;BME280;57319;56.274;43.980;2024-01-06T01:30:29;99533.53;;;-23.11;78.37
69982;BME280;57319;56.274;43.980;2024-01-06T01:32:55;99541.03;;;-23.10;78.29
69982;BME280;57319;56.274;43.980;2024-01-06T01:35:21;99538.41;;;-23.04;78.22
69982;BME280;57319;56.274;43.980;2024-01-06T01:37:46;99538.59;;;-23.02;78.65
69982;BME280;57319;56.274;43.980;2024-01-06T01:40:12;99536.53;;;-22.99;78.18
69982;BME280;57319;56.274;43.980;2024-01-06T01:42:38;99544.00;;;-22.98;78.12
69982;BME280;57319;56.274;43.980;2024-01-06T01:45:04;99541.75;;;-23.03;78.11
69982;BME280;57319;56.274;43.980;2024-01-06T01:47:30;99537.56;;;-23.04;78.64
69982;BME280;57319;56.274;43.980;2024-01-06T01:49:56;99540.53;;;-23.14;78.40
69982;BME280;57319;56.274;43.980;2024-01-06T01:52:22;99539.66;;;-23.15;78.28
69982;BME280;57319;56.274;43.980;2024-01-06T01:54:48;99544.19;;;-23.03;78.41
69982;BME280;57319;56.274;43.980;2024-01-06T01:57:15;99549.75;;;-23.19;78.42
69982;BME280;57319;56.274;43.980;2024-01-06T01:59:41;99546.75;;;-23.09;78.54
69982;BME280;57319;56.274;43.980;2024-01-06T02:02:08;99537.91;;;-23.01;78.68
69982;BME280;57319;56.274;43.980;2024-01-06T02:04:34;99536.53;;;-22.99;77.93
69982;BME280;57319;56.274;43.980;2024-01-06T02:07:00;99530.22;;;-22.97;78.12
69982;BME280;57319;56.274;43.980;2024-01-06T02:09:26;99536.69;;;-22.98;78.14
69982;BME280;57319;56.274;43.980;2024-01-06T02:11:58;99534.94;;;-22.99;78.23
69982;BME280;57319;56.274;43.980;2024-01-06T02:14:24;99529.91;;;-23.00;78.46
69982;BME280;57319;56.274;43.980;2024-01-06T02:16:50;99533.03;;;-23.01;78.33
69982;BME280;57319;56.274;43.980;2024-01-06T02:19:16;99533.03;;;-23.01;78.38
69982;BME280;57319;56.274;43.980;2024-01-06T02:21:43;99537.56;;;-23.04;78.37
69982;BME280;57319;56.274;43.980;2024-01-06T02:24:10;99535.81;;;-23.05;78.17
69982;BME280;57319;56.274;43.980;2024-01-06T02:26:35;99533.03;;;-23.09;78.28
69982;BME280;57319;56.274;43.980;2024-01-06T02:29:01;99538.59;;;-23.10;78.02
69982;BME280;57319;56.274;43.980;2024-01-06T02:31:27;99533.41;;;-23.13;77.73
69982;BME280;57319;56.274;43.980;2024-01-06T02:33:53;99526.59;;;-23.22;77.72
69982;BME280;57319;56.274;43.980;2024-01-06T02:36:19;99528.16;;;-23.23;77.75
69982;BME280;57319;56.274;43.980;2024-01-06T02:38:45;99526.75;;;-23.43;77.43
69982;BME280;57319;56.274;43.980;2024-01-06T02:41:10;99518.50;;;-23.65;76.67
69982;BME280;57319;56.274;43.980;2024-01-06T02:43:36;99518.19;;;-24.17;77.33
69982;BME280;57319;56.274;43.980;2024-01-06T02:46:01;99528.13;;;-24.42;78.06
69982;BME280;57319;56.274;43.980;2024-01-06T02:48:28;99526.16;;;-23.62;79.47
69982;BME280;57319;56.274;43.980;2024-01-06T02:50:56;99528.50;;;-23.27;78.62
69982;BME280;57319;56.274;43.980;2024-01-06T02:53:22;99522.06;;;-23.19;78.55
69982;BME280;57319;56.274;43.980;2024-01-06T02:55:47;99531.66;;;-23.21;77.94
69982;BME280;57319;56.274;43.980;2024-01-06T02:58:13;99518.41;;;-23.23;77.67
69982;BME280;57319;56.274;43.980;2024-01-06T03:00:39;99514.25;;;-23.24;77.56
69982;BME280;57319;56.274;43.980;2024-01-06T03:03:04;99519.81;;;-23.25;77.60
69982;BME280;57319;56.274;43.980;2024-01-06T03:05:30;99518.41;;;-23.30;77.19
69982;BME280;57319;56.274;43.980;2024-01-06T03:07:56;99518.56;;;-23.36;76.89
69982;BME280;57319;56.274;43.980;2024-01-06T03:10:22;99518.75;;;-23.42;76.75
69982;BME280;57319;56.274;43.980;2024-01-06T03:12:48;99518.19;;;-23.46;77.04
69982;BME280;57319;56.274;43.980;2024-01-06T03:15:14;99507.94;;;-23.51;77.17
69982;BME280;57319;56.274;43.980;2024-01-06T03:17:39;99518.34;;;-23.52;77.24
69982;BME280;57319;56.274;43.980;2024-01-06T03:20:05;99519.94;;;-23.52;76.74
69982;BME280;57319;56.274;43.980;2024-01-06T03:22:32;99522.53;;;-23.58;77.00
69982;BME280;57319;56.274;43.980;2024-01-06T03:24:58;99522.88;;;-23.62;76.71
69982;BME280;57319;56.274;43.980;2024-01-06T03:27:24;99520.94;;;-23.65;76.92
69982;BME280;57319;56.274;43.980;2024-01-06T03:29:49;99523.91;;;-23.67;77.08
69982;BME280;57319;56.274;43.980;2024-01-06T03:32:15;99531.88;;;-23.68;77.10
69982;BME280;57319;56.274;43.980;2024-01-06T03:34:41;99533.63;;;-23.67;77.15
69982;BME280;57319;56.274;43.980;2024-01-06T03:37:07;99533.28;;;-23.70;77.28
69982;BME280;57319;56.274;43.980;2024-01-06T03:39:32;99533.78;;;-23.73;77.31
69982;BME280;57319;56.274;43.980;2024-01-06T03:42:00;99536.75;;;-23.76;76.84
69982;BME280;57319;56.274;43.980;2024-01-06T03:44:26;99538.31;;;-23.76;77.05
69982;BME280;57319;56.274;43.980;2024-01-06T03:46:58;99532.38;;;-23.92;76.65
69982;BME280;57319;56.274;43.980;2024-01-06T03:49:24;99535.16;;;-23.82;77.03
69982;BME280;57319;56.274;43.980;2024-01-06T03:51:50;99534.13;;;-23.84;78.05
69982;BME280;57319;56.274;43.980;2024-01-06T03:54:16;99536.34;;;-24.00;77.54
69982;BME280;57319;56.274;43.980;2024-01-06T03:56:41;99535.81;;;-24.05;77.53
69982;BME280;57319;56.274;43.980;2024-01-06T03:59:08;99546.44;;;-23.97;77.71
69982;BME280;57319;56.274;43.980;2024-01-06T04:01:34;99546.84;;;-23.72;77.46
69982;BME280;57319;56.274;43.980;2024-01-06T04:04:02;99545.56;;;-23.83;77.49
69982;BME280;57319;56.274;43.980;2024-01-06T04:06:27;99543.72;;;-23.71;77.46
69982;BME280;57319;56.274;43.980;2024-01-06T04:08:53;99549.81;;;-23.68;77.98
69982;BME280;57319;56.274;43.980;2024-01-06T04:11:23;99539.69;;;-23.78;77.65
69982;BME280;57319;56.274;43.980;2024-01-06T04:13:48;99539.50;;;-23.80;77.71
69982;BME280;57319;56.274;43.980;2024-01-06T04:16:14;99549.25;;;-23.80;76.84
69982;BME280;57319;56.274;43.980;2024-01-06T04:18:40;99550.16;;;-23.72;77.47
69982;BME280;57319;56.274;43.980;2024-01-06T04:21:05;99549.28;;;-23.72;77.38
69982;BME280;57319;56.274;43.980;2024-01-06T04:23:31;99552.41;;;-23.73;77.15
69982;BME280;57319;56.274;43.980;2024-01-06T04:25:57;99556.22;;;-23.76;77.30
69982;BME280;57319;56.274;43.980;2024-01-06T04:28:22;99564.22;;;-23.77;77.26
69982;BME280;57319;56.274;43.980;2024-01-06T04:30:48;99561.25;;;-23.81;77.72
69982;BME280;57319;56.274;43.980;2024-01-06T04:33:14;99570.81;;;-23.83;77.36
69982;BME280;57319;56.274;43.980;2024-01-06T04:35:39;99578.47;;;-23.80;77.35
69982;BME280;57319;56.274;43.980;2024-01-06T04:38:05;99580.72;;;-23.81;77.78
69982;BME280;57319;56.274;43.980;2024-01-06T04:40:31;99586.09;;;-23.84;77.40
69982;BME280;57319;56.274;43.980;2024-01-06T04:42:56;99586.13;;;-24.18;76.19
69982;BME280;57319;56.274;43.980;2024-01-06T04:45:22;99591.63;;;-23.99;77.84
69982;BME280;57319;56.274;43.980;2024-01-06T04:47:50;99595.34;;;-23.88;77.73
69982;BME280;57319;56.274;43.980;2024-01-06T04:50:16;99586.97;;;-23.83;77.54
69982;BME280;57319;56.274;43.980;2024-01-06T04:52:41;99591.66;;;-23.85;77.39
69982;BME280;57319;56.274;43.980;2024-01-06T04:55:07;99583.31;;;-23.94;77.74
69982;BME280;57319;56.274;43.980;2024-01-06T04:57:34;99584.19;;;-23.94;77.90
69982;BME280;57319;56.274;43.980;2024-01-06T05:00:00;99579.47;;;-23.85;78.23
69982;BME280;57319;56.274;43.980;2024-01-06T05:02:26;99580.03;;;-23.80;78.18
69982;BME280;57319;56.274;43.980;2024-01-06T05:04:51;99580.59;;;-24.17;77.57
69982;BME280;57319;56.274;43.980;2024-01-06T05:07:17;99578.97;;;-23.97;78.26
69982;BME280;57319;56.274;43.980;2024-01-06T05:09:43;99584.03;;;-23.81;78.26
69982;BME280;57319;56.274;43.980;2024-01-06T05:12:08;99579.72;;;-23.76;78.11
69982;BME280;57319;56.274;43.980;2024-01-06T05:14:34;99582.16;;;-23.76;78.51
69982;BME280;57319;56.274;43.980;2024-01-06T05:17:00;99578.53;;;-24.07;77.24
69982;BME280;57319;56.274;43.980;2024-01-06T05:19:25;99577.75;;;-23.93;77.84
69982;BME280;57319;56.274;43.980;2024-01-06T05:21:51;99581.66;;;-24.08;77.93
69982;BME280;57319;56.274;43.980;2024-01-06T05:24:18;99578.03;;;-24.39;76.53
69982;BME280;57319;56.274;43.980;2024-01-06T05:26:45;99576.38;;;-23.91;77.59
69982;BME280;57319;56.274;43.980;2024-01-06T05:29:10;99582.66;;;-23.79;77.51
69982;BME280;57319;56.274;43.980;2024-01-06T05:31:36;99581.81;;;-23.72;77.33
69982;BME280;57319;56.274;43.980;2024-01-06T05:34:02;99586.72;;;-23.65;77.98
69982;BME280;57319;56.274;43.980;2024-01-06T05:36:27;99583.59;;;-23.64;77.70
69982;BME280;57319;56.274;43.980;2024-01-06T05:38:53;99583.75;;;-23.62;77.72
69982;BME280;57319;56.274;43.980;2024-01-06T05:41:19;99592.44;;;-23.64;77.50
69982;BME280;57319;56.274;43.980;2024-01-06T05:43:44;99598.53;;;-23.68;77.83
69982;BME280;57319;56.274;43.980;2024-01-06T05:46:10;99594.34;;;-23.69;78.43
69982;BME280;57319;56.274;43.980;2024-01-06T05:48:36;99598.56;;;-23.61;78.30
69982;BME280;57319;56.274;43.980;2024-01-06T05:51:05;99595.03;;;-23.70;77.62
69982;BME280;57319;56.274;43.980;2024-01-06T05:53:31;99603.22;;;-23.69;78.16
69982;BME280;57319;56.274;43.980;2024-01-06T05:55:57;99601.66;;;-23.69;77.88
69982;BME280;57319;56.274;43.980;2024-01-06T05:58:22;99599.03;;;-23.70;78.02
69982;BME280;57319;56.274;43.980;2024-01-06T06:00:48;99600.06;;;-23.68;77.34
69982;BME280;57319;56.274;43.980;2024-01-06T06:03:14;99600.47;;;-23.58;77.80
69982;BME280;57319;56.274;43.980;2024-01-06T06:05:40;99601.19;;;-23.52;78.13
69982;BME280;57319;56.274;43.980;2024-01-06T06:08:06;99612.34;;;-23.47;77.72
69982;BME280;57319;56.274;43.980;2024-01-06T06:10:31;99605.03;;;-23.47;77.92
69982;BME280;57319;56.274;43.980;2024-01-06T06:13:07;99608.53;;;-23.45;77.33
69982;BME280;57319;56.274;43.980;2024-01-06T06:15:36;99601.41;;;-23.43;77.62
69982;BME280;57319;56.274;43.980;2024-01-06T06:18:01;99599.31;;;-23.40;78.05
69982;BME280;57319;56.274;43.980;2024-01-06T06:20:27;99598.97;;;-23.43;77.70
69982;BME280;57319;56.274;43.980;2024-01-06T06:22:53;99604.72;;;-23.35;77.54
69982;BME280;57319;56.274;43.980;2024-01-06T06:25:18;99601.75;;;-23.33;77.53
69982;BME280;57319;56.274;43.980;2024-01-06T06:27:45;99601.75;;;-23.33;77.10
69982;BME280;57319;56.274;43.980;2024-01-06T06:30:11;99604.88;;;-23.34;77.49
69982;BME280;57319;56.274;43.980;2024-01-06T06:32:36;99608.91;;;-23.27;77.83
69982;BME280;57319;56.274;43.980;2024-01-06T06:35:02;99604.94;;;-23.19;77.73
69982;BME280;57319;56.274;43.980;2024-01-06T06:37:29;99607.22;;;-23.14;77.79
69982;BME280;57319;56.274;43.980;2024-01-06T06:39:54;99607.69;;;-23.09;77.66
69982;BME280;57319;56.274;43.980;2024-01-06T06:42:20;99609.13;;;-23.04;77.42
69982;BME280;57319;56.274;43.980;2024-01-06T06:44:46;99608.44;;;-23.03;77.57
69982;BME280;57319;56.274;43.980;2024-01-06T06:47:12;99618.00;;;-22.97;77.81
69982;BME280;57319;56.274;43.980;2024-01-06T06:49:37;99617.84;;;-23.06;77.87
69982;BME280;57319;56.274;43.980;2024-01-06T06:52:03;99618.72;;;-22.91;78.49
69982;BME280;57319;56.274;43.980;2024-01-06T06:54:29;99626.38;;;-22.95;78.02
69982;BME280;57319;56.274;43.980;2024-01-06T06:56:55;99629.91;;;-22.79;78.07
69982;BME280;57319;56.274;43.980;2024-01-06T06:59:20;99623.94;;;-22.74;77.93
69982;BME280;57319;56.274;43.980;2024-01-06T07:01:46;99623.78;;;-22.68;77.64
69982;BME280;57319;56.274;43.980;2024-01-06T07:04:12;99624.66;;;-22.67;77.32
69982;BME280;57319;56.274;43.980;2024-01-06T07:06:37;99622.06;;;-22.69;77.70
69982;BME280;57319;56.274;43.980;2024-01-06T07:09:03;99636.09;;;-23.10;77.18
69982;BME280;57319;56.274;43.980;2024-01-06T07:11:30;99619.78;;;-22.75;78.38
69982;BME280;57319;56.274;43.980;2024-01-06T07:13:56;99627.47;;;-22.50;77.95
69982;BME280;57319;56.274;43.980;2024-01-06T07:16:21;99628.31;;;-22.42;78.08
69982;BME280;57319;56.274;43.980;2024-01-06T07:18:47;99628.13;;;-22.36;77.74
69982;BME280;57319;56.274;43.980;2024-01-06T07:21:13;99638.97;;;-22.34;77.92
69982;BME280;57319;56.274;43.980;2024-01-06T07:23:39;99630.06;;;-22.34;77.66
69982;BME280;57319;56.274;43.980;2024-01-06T07:26:04;99630.56;;;-22.29;77.77
69982;BME280;57319;56.274;43.980;2024-01-06T07:28:30;99621.13;;;-22.26;77.84
69982;BME280;57319;56.274;43.980;2024-01-06T07:30:56;99628.13;;;-22.22;77.95
69982;BME280;57319;56.274;43.980;2024-01-06T07:33:22;99630.88;;;-22.19;77.83
69982;BME280;57319;56.274;43.980;2024-01-06T07:35:50;99633.16;;;-22.13;77.92
69982;BME280;57319;56.274;43.980;2024-01-06T07:38:15;99635.22;;;-22.09;77.73
69982;BME280;57319;56.274;43.980;2024-01-06T07:40:41;99634.03;;;-22.06;77.92
69982;BME280;57319;56.274;43.980;2024-01-06T07:43:09;99628.94;;;-22.00;77.92
69982;BME280;57319;56.274;43.980;2024-01-06T07:45:35;99627.91;;;-21.95;78.03
69982;BME280;57319;56.274;43.980;2024-01-06T07:48:00;99624.72;;;-21.94;77.62
69982;BME280;57319;56.274;43.980;2024-01-06T07:50:26;99624.72;;;-21.94;77.73
69982;BME280;57319;56.274;43.980;2024-01-06T07:52:53;99628.41;;;-21.90;77.92
69982;BME280;57319;56.274;43.980;2024-01-06T07:55:19;99631.91;;;-22.02;77.79
69982;BME280;57319;56.274;43.980;2024-01-06T07:57:45;99634.25;;;-22.40;77.21
69982;BME280;57319;56.274;43.980;2024-01-06T08:00:12;99618.09;;;-21.88;78.26
69982;BME280;57319;56.274;43.980;2024-01-06T08:02:40;99623.66;;;-21.81;78.23
69982;BME280;57319;56.274;43.980;2024-01-06T08:05:06;99616.66;;;-21.71;78.83
69982;BME280;57319;56.274;43.980;2024-01-06T08:07:32;99625.09;;;-21.98;77.94
69982;BME280;57319;56.274;43.980;2024-01-06T08:09:58;99623.38;;;-22.06;77.65
69982;BME280;57319;56.274;43.980;2024-01-06T08:12:24;99621.31;;;-21.58;78.30
69982;BME280;57319;56.274;43.980;2024-01-06T08:14:49;99613.53;;;-21.40;78.24
69982;BME280;57319;56.274;43.980;2024-01-06T08:17:15;99611.75;;;-21.33;78.22
69982;BME280;57319;56.274;43.980;2024-01-06T08:19:40;99608.94;;;-21.29;78.37
69982;BME280;57319;56.274;43.980;2024-01-06T08:22:07;99600.06;;;-21.29;78.28
69982;BME280;57319;56.274;43.980;2024-01-06T08:24:33;99599.31;;;-21.21;78.74
69982;BME280;57319;56.274;43.980;2024-01-06T08:27:00;99605.16;;;-21.11;79.00
69982;BME280;57319;56.274;43.980;2024-01-06T08:29:26;99606.38;;;-21.08;78.77
69982;BME280;57319;56.274;43.980;2024-01-06T08:31:51;99597.88;;;-21.49;78.33
69982;BME280;57319;56.274;43.980;2024-01-06T08:34:18;99602.84;;;-21.63;78.38
69982;BME280;57319;56.274;43.980;2024-01-06T08:36:44;99605.75;;;-21.14;79.11
69982;BME280;57319;56.274;43.980;2024-01-06T08:39:11;99605.97;;;-20.96;79.07
69982;BME280;57319;56.274;43.980;2024-01-06T08:41:36;99600.47;;;-20.87;78.73
69982;BME280;57319;56.274;43.980;2024-01-06T08:44:02;99610.19;;;-20.72;79.03
69982;BME280;57319;56.274;43.980;2024-01-06T08:46:28;99614.59;;;-20.77;78.80
69982;BME280;57319;56.274;43.980;2024-01-06T08:48:53;99622.41;;;-20.72;78.44
69982;BME280;57319;56.274;43.980;2024-01-06T08:51:19;99611.69;;;-20.65;78.46
69982;BME280;57319;56.274;43.980;2024-01-06T08:53:46;99609.66;;;-20.54;78.85
69982;BME280;57319;56.274;43.980;2024-01-06T08:56:11;99606.81;;;-20.50;78.75
69982;BME280;57319;56.274;43.980;2024-01-06T08:58:37;99608.88;;;-20.45;78.83
69982;BME280;57319;56.274;43.980;2024-01-06T09:01:03;99606.28;;;-20.47;78.88
69982;BME280;57319;56.274;43.980;2024-01-06T09:03:28;99613.78;;;-20.45;78.80
69982;BME280;57319;56.274;43.980;2024-01-06T09:05:56;99612.06;;;-20.46;78.28
69982;BME280;57319;56.274;43.980;2024-01-06T09:08:22;99607.41;;;-20.36;78.67
69982;BME280;57319;56.274;43.980;2024-01-06T09:10:49;99614.66;;;-20.45;78.43
69982;BME280;57319;56.274;43.980;2024-01-06T09:13:19;99614.16;;;-20.50;78.44
69982;BME280;57319;56.274;43.980;2024-01-06T09:15:47;99623.97;;;-21.64;75.21
69982;BME280;57319;56.274;43.980;2024-01-06T09:18:13;99630.00;;;-22.05;76.11
69982;BME280;57319;56.274;43.980;2024-01-06T09:20:38;99632.59;;;-21.89;77.01
69982;BME280;57319;56.274;43.980;2024-01-06T09:23:04;99633.63;;;-21.05;77.66
69982;BME280;57319;56.274;43.980;2024-01-06T09:25:30;99632.88;;;-21.64;75.48
69982;BME280;57319;56.274;43.980;2024-01-06T09:27:56;99636.09;;;-21.12;76.74
69982;BME280;57319;56.274;43.980;2024-01-06T09:30:21;99630.19;;;-20.83;76.88
69982;BME280;57319;56.274;43.980;2024-01-06T09:32:47;99623.13;;;-21.34;75.45
69982;BME280;57319;56.274;43.980;2024-01-06T09:35:13;99617.66;;;-21.24;76.20
69982;BME280;57319;56.274;43.980;2024-01-06T09:37:38;99624.34;;;-21.00;76.25
69982;BME280;57319;56.274;43.980;2024-01-06T09:40:06;99625.97;;;-21.97;75.05
69982;BME280;57319;56.274;43.980;2024-01-06T09:42:33;99620.56;;;-21.88;77.32
69982;BME280;57319;56.274;43.980;2024-01-06T09:44:59;99619.16;;;-21.10;78.18
69982;BME280;57319;56.274;43.980;2024-01-06T09:47:26;99612.84;;;-21.46;76.17
69982;BME280;57319;56.274;43.980;2024-01-06T09:49:55;99612.06;;;-21.61;76.75
69982;BME280;57319;56.274;43.980;2024-01-06T09:52:22;99608.47;;;-21.04;77.04
69982;BME280;57319;56.274;43.980;2024-01-06T09:54:52;99605.91;;;-21.20;76.26
69982;BME280;57319;56.274;43.980;2024-01-06T09:57:21;99592.94;;;-20.81;76.84
69982;BME280;57319;56.274;43.980;2024-01-06T09:59:48;99582.34;;;-20.50;76.62
69982;BME280;57319;56.274;43.980;2024-01-06T10:02:15;99593.09;;;-20.56;76.74
69982;BME280;57319;56.274;43.980;2024-01-06T10:04:41;99590.53;;;-20.26;77.26
69982;BME280;57319;56.274;43.980;2024-01-06T10:07:08;99594.13;;;-20.15;77.69
69982;BME280;57319;56.274;43.980;2024-01-06T10:09:33;99585.00;;;-20.55;77.06
69982;BME280;57319;56.274;43.980;2024-01-06T10:11:59;99576.25;;;-20.30;77.68
69982;BME280;57319;56.274;43.980;2024-01-06T10:14:25;99579.47;;;-20.38;77.29
69982;BME280;57319;56.274;43.980;2024-01-06T10:16:52;99578.59;;;-20.62;75.99
69982;BME280;57319;56.274;43.980;2024-01-06T10:19:18;99585.72;;;-20.17;76.76
69982;BME280;57319;56.274;43.980;2024-01-06T10:21:44;99581.31;;;-19.96;76.77
69982;BME280;57319;56.274;43.980;2024-01-06T10:24:10;99584.16;;;-20.01;77.33
69982;BME280;57319;56.274;43.980;2024-01-06T10:26:35;99583.44;;;-20.55;75.20
69982;BME280;57319;56.274;43.980;2024-01-06T10:29:01;99589.97;;;-21.39;75.19
69982;BME280;57319;56.274;43.980;2024-01-06T10:31:29;99585.72;;;-21.26;76.30
69982;BME280;57319;56.274;43.980;2024-01-06T10:33:54;99597.69;;;-20.67;77.10
69982;BME280;57319;56.274;43.980;2024-01-06T10:36:23;99584.00;;;-20.57;77.22
69982;BME280;57319;56.274;43.980;2024-01-06T10:38:49;99592.63;;;-20.45;77.46
69982;BME280;57319;56.274;43.980;2024-01-06T10:41:16;99591.53;;;-20.79;76.31
69982;BME280;57319;56.274;43.980;2024-01-06T10:43:42;99589.09;;;-20.63;77.30
69982;BME280;57319;56.274;43.980;2024-01-06T10:46:09;99595.97;;;-20.68;77.66
69982;BME280;57319;56.274;43.980;2024-01-06T10:48:40;99592.34;;;-20.55;78.47
69982;BME280;57319;56.274;43.980;2024-01-06T10:51:13;99586.44;;;-20.57;78.34
69982;BME280;57319;56.274;43.980;2024-01-06T10:53:41;99589.97;;;-20.62;78.64
69982;BME280;57319;56.274;43.980;2024-01-06T10:56:07;99587.13;;;-20.58;78.91
69982;BME280;57319;56.274;43.980;2024-01-06T10:58:35;99591.91;;;-20.83;77.83
69982;BME280;57319;56.274;43.980;2024-01-06T11:01:09;99583.41;;;-20.71;79.14
69982;BME280;57319;56.274;43.980;2024-01-06T11:03:37;99587.31;;;-20.73;78.90
69982;BME280;57319;56.274;43.980;2024-01-06T11:06:07;99588.44;;;-20.85;78.65
69982;BME280;57319;56.274;43.980;2024-01-06T11:08:44;99594.13;;;-20.77;78.14
69982;BME280;57319;56.274;43.980;2024-01-06T11:11:24;99590.81;;;-20.62;78.73
69982;BME280;57319;56.274;43.980;2024-01-06T11:13:50;99591.75;;;-20.45;79.29
69982;BME280;57319;56.274;43.980;2024-01-06T11:16:35;99582.28;;;-20.42;78.79
69982;BME280;57319;56.274;43.980;2024-01-06T11:19:01;99577.28;;;-20.51;78.59
69982;BME280;57319;56.274;43.980;2024-01-06T11:21:27;99585.09;;;-20.86;78.28
69982;BME280;57319;56.274;43.980;2024-01-06T11:26:31;99582.25;;;-20.58;77.98
69982;BME280;57319;56.274;43.980;2024-01-06T11:28:57;99577.63;;;-20.48;78.52
69982;BME280;57319;56.274;43.980;2024-01-06T11:31:30;99573.69;;;-20.39;78.59
69982;BME280;57319;56.274;43.980;2024-01-06T11:33:56;99575.53;;;-20.13;79.65
69982;BME280;57319;56.274;43.980;2024-01-06T11:36:22;99568.25;;;-20.04;79.71
69982;BME280;57319;56.274;43.980;2024-01-06T11:38:47;99572.97;;;-19.99;80.10
69982;BME280;57319;56.274;43.980;2024-01-06T11:41:50;99570.50;;;-19.99;80.23
69982;BME280;57319;56.274;43.980;2024-01-06T11:44:23;99565.53;;;-19.91;80.57
69982;BME280;57319;56.274;43.980;2024-01-06T11:46:48;99573.19;;;-19.88;80.54
69982;BME280;57319;56.274;43.980;2024-01-06T11:49:20;99582.97;;;-20.04;80.09
69982;BME280;57319;56.274;43.980;2024-01-06T11:51:46;99580.84;;;-20.56;79.10
69982;BME280;57319;56.274;43.980;2024-01-06T11:54:12;99583.16;;;-20.42;78.21
69982;BME280;57319;56.274;43.980;2024-01-06T11:56:38;99570.72;;;-20.04;78.79
69982;BME280;57319;56.274;43.980;2024-01-06T11:59:05;99567.47;;;-19.96;78.87
69982;BME280;57319;56.274;43.980;2024-01-06T12:01:40;99573.25;;;-19.95;78.83
69982;BME280;57319;56.274;43.980;2024-01-06T12:04:06;99567.81;;;-19.93;79.38
69982;BME280;57319;56.274;43.980;2024-01-06T12:06:33;99564.66;;;-20.47;77.34
69982;BME280;57319;56.274;43.980;2024-01-06T12:09:09;99573.13;;;-20.52;77.60
69982;BME280;57319;56.274;43.980;2024-01-06T12:11:35;99576.53;;;-20.82;77.06
69982;BME280;57319;56.274;43.980;2024-01-06T12:14:03;99572.47;;;-20.19;78.23
69982;BME280;57319;56.274;43.980;2024-01-06T12:16:28;99570.16;;;-20.02;78.40
69982;BME280;57319;56.274;43.980;2024-01-06T12:18:55;99568.88;;;-20.14;78.23
69982;BME280;57319;56.274;43.980;2024-01-06T12:21:23;99574.97;;;-20.26;78.10
69982;BME280;57319;56.274;43.980;2024-01-06T12:23:48;99571.50;;;-20.28;77.67
69982;BME280;57319;56.274;43.980;2024-01-06T12:26:14;99572.50;;;-20.26;78.15
69982;BME280;57319;56.274;43.980;2024-01-06T12:28:39;99569.66;;;-20.22;78.69
69982;BME280;57319;56.274;43.980;2024-01-06T12:31:09;99576.25;;;-19.98;79.40
69982;BME280;57319;56.274;43.980;2024-01-06T12:33:35;99579.63;;;-20.60;77.56
69982;BME280;57319;56.274;43.980;2024-01-06T12:36:03;99578.97;;;-20.66;77.67
69982;BME280;57319;56.274;43.980;2024-01-06T12:38:30;99577.00;;;-20.38;78.27